Time;durP1;ratioP1;P1;durP2;ratioP2;P2;SDS_P1;SDS_P2;PMS_P1;PMS_P2;Temp;Humidity;BMP_temperature;BMP_pressure;BME280_temperature;BME280_humidity;BME280_pressure;Samples;Min_cycle;Max_cycle;Signal;HPM_P1;HPM_P2
2022/05/17 00:01:48;;;;;;;0.10;0.10;;;;;;;;;;5092689;28;20036;-84
2022/05/17 00:04:14;;;;;;;0.00;0.00;;;;;;;;;;5094229;28;20061;-86
2022/05/17 00:06:41;;;;;;;0.10;0.10;;;;;;;;;;5092546;28;20059;-84
2022/05/17 00:09:07;;;;;;;0.03;0.03;;;;;;;;;;5094463;28;20061;-84
2022/05/17 00:11:33;;;;;;;0.10;0.10;;;;;;;;;;5105625;28;20023;-84
2022/05/17 00:13:59;;;;;;;0.10;0.10;;;;;;;;;;5112930;28;20433;-84
2022/05/17 00:16:25;;;;;;;0.10;0.10;;;;;;;;;;5114305;28;20027;-83
2022/05/17 00:18:52;;;;;;;0.10;0.10;;;;;;;;;;5112572;28;20020;-85
2022/05/17 00:21:18;;;;;;;0.10;0.10;;;;;;;;;;5114066;28;20087;-84
2022/05/17 00:23:45;;;;;;;0.10;0.10;;;;;;;;;;5113046;28;20024;-83
2022/05/17 00:26:11;;;;;;;0.10;0.10;;;;;;;;;;5113009;28;20465;-84
2022/05/17 00:28:37;;;;;;;0.10;0.10;;;;;;;;;;5114566;28;20035;-85
2022/05/17 00:31:06;;;;;;;0.10;0.10;;;;;;;;;;5112508;28;20015;-85
2022/05/17 00:33:32;;;;;;;0.10;0.10;;;;;;;;;;5113688;28;20020;-86
2022/05/17 00:35:58;;;;;;;0.10;0.10;;;;;;;;;;5113725;28;20031;-85
2022/05/17 00:38:24;;;;;;;0.10;0.10;;;;;;;;;;5114008;28;20019;-85
2022/05/17 00:40:51;;;;;;;0.10;0.10;;;;;;;;;;5112178;28;20552;-85
2022/05/17 00:46:51;;;;;;;0.10;0.10;;;;;;;;;;5103201;28;20060;-84
2022/05/17 00:49:24;;;;;;;0.10;0.10;;;;;;;;;;5065304;28;20047;-84
2022/05/17 00:51:51;;;;;;;0.10;0.10;;;;;;;;;;5071353;28;20028;-83
2022/05/17 00:54:18;;;;;;;0.10;0.10;;;;;;;;;;5074502;28;20020;-83
2022/05/17 00:56:55;;;;;;;0.10;0.10;;;;;;;;;;5092892;28;20073;-83
2022/05/17 00:59:22;;;;;;;0.10;0.10;;;;;;;;;;5072808;28;20028;-85
2022/05/17 01:01:48;;;;;;;0.10;0.10;;;;;;;;;;5072599;28;20378;-85
2022/05/17 01:04:21;;;;;;;0.00;0.00;;;;;;;;;;5072828;28;20059;-84
2022/05/17 01:06:49;;;;;;;0.08;0.08;;;;;;;;;;5072352;28;20036;-84
2022/05/17 01:09:15;;;;;;;0.10;0.10;;;;;;;;;;5079636;28;20031;-83
2022/05/17 01:11:42;;;;;;;0.10;0.10;;;;;;;;;;5092011;28;20059;-82
2022/05/17 01:16:53;;;;;;;0.08;0.08;;;;;;;;;;5092698;28;20046;-86
2022/05/17 01:19:19;;;;;;;0.10;0.10;;;;;;;;;;5092606;28;20031;-84
2022/05/17 01:21:46;;;;;;;0.00;0.00;;;;;;;;;;5101506;28;20031;-86
2022/05/17 01:24:12;;;;;;;0.10;0.10;;;;;;;;;;5109865;28;20032;-85
2022/05/17 01:26:42;;;;;;;0.10;0.10;;;;;;;;;;5112889;28;20035;-83
2022/05/17 01:29:08;;;;;;;0.10;0.10;;;;;;;;;;5113244;28;20073;-82
2022/05/17 01:31:35;;;;;;;0.00;0.00;;;;;;;;;;5113013;28;20054;-85
2022/05/17 01:34:01;;;;;;;0.10;0.10;;;;;;;;;;5111632;28;20055;-83
2022/05/17 01:36:27;;;;;;;0.10;0.10;;;;;;;;;;5112838;28;20022;-84
2022/05/17 01:38:53;;;;;;;0.10;0.10;;;;;;;;;;5112494;28;20027;-84
2022/05/17 01:41:20;;;;;;;0.10;0.10;;;;;;;;;;5111317;28;20036;-84
2022/05/17 01:43:46;;;;;;;0.08;0.08;;;;;;;;;;5112468;28;20042;-83
2022/05/17 01:46:13;;;;;;;0.10;0.10;;;;;;;;;;5094141;28;20039;-85
2022/05/17 01:48:39;;;;;;;0.10;0.10;;;;;;;;;;5091886;28;20020;-81
2022/05/17 01:51:06;;;;;;;0.10;0.10;;;;;;;;;;5092521;28;20625;-83
2022/05/17 01:53:33;;;;;;;0.10;0.10;;;;;;;;;;5090790;28;20020;-84
2022/05/17 01:56:01;;;;;;;0.10;0.10;;;;;;;;;;5090433;28;20040;-84
2022/05/17 01:58:27;;;;;;;0.10;0.10;;;;;;;;;;5090507;28;20051;-85
2022/05/17 02:00:54;;;;;;;0.10;0.10;;;;;;;;;;5090296;28;20036;-83
2022/05/17 02:03:20;;;;;;;0.10;0.10;;;;;;;;;;5090569;28;20034;-84
2022/05/17 02:05:46;;;;;;;0.10;0.10;;;;;;;;;;5109026;28;20059;-83
2022/05/17 02:08:12;;;;;;;0.10;0.10;;;;;;;;;;5111901;28;20027;-83
2022/05/17 02:10:38;;;;;;;0.10;0.10;;;;;;;;;;5112488;28;20475;-84
2022/05/17 02:13:05;;;;;;;0.10;0.10;;;;;;;;;;5112364;28;20024;-84
2022/05/17 02:15:31;;;;;;;0.10;0.10;;;;;;;;;;5100278;28;20032;-86
2022/05/17 02:17:57;;;;;;;0.10;0.10;;;;;;;;;;5091420;28;20480;-86
2022/05/17 02:20:23;;;;;;;0.10;0.10;;;;;;;;;;5090450;28;20036;-86
2022/05/17 02:22:50;;;;;;;0.10;0.10;;;;;;;;;;5091442;28;20016;-83
2022/05/17 02:25:16;;;;;;;0.10;0.10;;;;;;;;;;5089596;28;20483;-84
2022/05/17 02:27:42;;;;;;;0.10;0.10;;;;;;;;;;5090398;28;20031;-87
2022/05/17 02:30:10;;;;;;;0.10;0.10;;;;;;;;;;5091737;28;20032;-85
2022/05/17 02:32:36;;;;;;;0.10;0.10;;;;;;;;;;5092304;28;20043;-83
2022/05/17 02:35:02;;;;;;;0.10;0.10;;;;;;;;;;5111609;28;20408;-83
2022/05/17 02:37:28;;;;;;;0.10;0.10;;;;;;;;;;5111767;28;20391;-83
2022/05/17 02:39:54;;;;;;;0.10;0.10;;;;;;;;;;5111471;28;20023;-84
2022/05/17 02:42:20;;;;;;;0.10;0.10;;;;;;;;;;5111675;28;20073;-84
2022/05/17 02:44:47;;;;;;;0.00;0.00;;;;;;;;;;5111527;28;20051;-82
2022/05/17 02:47:13;;;;;;;0.10;0.10;;;;;;;;;;5110704;28;20046;-82
2022/05/17 02:49:40;;;;;;;0.10;0.10;;;;;;;;;;5089947;28;20035;-80
2022/05/17 02:52:06;;;;;;;0.10;0.10;;;;;;;;;;5090209;28;20032;-82
2022/05/17 02:54:32;;;;;;;0.10;0.10;;;;;;;;;;5110202;28;20096;-83
2022/05/17 02:56:58;;;;;;;0.10;0.10;;;;;;;;;;5111337;28;20139;-82
2022/05/17 02:59:24;;;;;;;0.00;0.00;;;;;;;;;;5110039;28;20064;-83
2022/05/17 03:01:51;;;;;;;0.10;0.10;;;;;;;;;;5109919;28;20039;-81
2022/05/17 03:04:17;;;;;;;0.10;0.10;;;;;;;;;;5111307;28;20027;-82
2022/05/17 03:06:44;;;;;;;0.10;0.10;;;;;;;;;;5109729;28;20036;-82
2022/05/17 03:09:10;;;;;;;0.10;0.10;;;;;;;;;;5110868;28;20120;-81
2022/05/17 03:11:37;;;;;;;0.10;0.10;;;;;;;;;;5111863;28;20364;-82
2022/05/17 03:14:03;;;;;;;0.10;0.10;;;;;;;;;;5109306;28;20028;-80
2022/05/17 03:16:30;;;;;;;0.10;0.10;;;;;;;;;;5091159;28;20337;-81
2022/05/17 03:18:56;;;;;;;0.10;0.10;;;;;;;;;;5090789;28;20058;-81
2022/05/17 03:21:22;;;;;;;0.10;0.10;;;;;;;;;;5089644;28;20040;-81
2022/05/17 03:23:48;;;;;;;0.10;0.10;;;;;;;;;;5091140;28;20501;-81
2022/05/17 03:26:14;;;;;;;0.10;0.10;;;;;;;;;;5089280;28;20024;-82
2022/05/17 03:28:40;;;;;;;0.10;0.10;;;;;;;;;;5090628;28;20017;-81
2022/05/17 03:31:07;;;;;;;0.10;0.10;;;;;;;;;;5111215;28;20426;-82
2022/05/17 03:33:34;;;;;;;0.10;0.10;;;;;;;;;;5109617;28;20515;-81
2022/05/17 03:35:59;;;;;;;0.10;0.10;;;;;;;;;;5113276;28;20035;-81
2022/05/17 03:38:25;;;;;;;0.10;0.10;;;;;;;;;;5114532;28;20080;-82
2022/05/17 03:40:52;;;;;;;0.10;0.10;;;;;;;;;;5113319;28;20423;-81
2022/05/17 03:43:19;;;;;;;0.10;0.10;;;;;;;;;;5114906;28;20062;-82
2022/05/17 03:45:45;;;;;;;0.10;0.10;;;;;;;;;;5114564;28;20043;-81
2022/05/17 03:48:12;;;;;;;0.10;0.10;;;;;;;;;;5114939;28;20399;-82
2022/05/17 03:50:38;;;;;;;0.00;0.00;;;;;;;;;;5114852;28;20065;-82
2022/05/17 03:53:04;;;;;;;0.08;0.08;;;;;;;;;;5114288;28;20020;-82
2022/05/17 03:55:30;;;;;;;0.10;0.10;;;;;;;;;;5114038;28;20221;-82
2022/05/17 03:57:57;;;;;;;0.10;0.10;;;;;;;;;;5114597;28;20085;-82
2022/05/17 04:00:23;;;;;;;0.10;0.10;;;;;;;;;;5114546;28;20532;-82
2022/05/17 04:02:49;;;;;;;0.10;0.10;;;;;;;;;;5114303;28;20463;-82
2022/05/17 04:05:16;;;;;;;0.10;0.10;;;;;;;;;;5098727;28;20032;-82
2022/05/17 04:07:45;;;;;;;0.10;0.10;;;;;;;;;;5093502;28;20036;-81
2022/05/17 04:10:12;;;;;;;0.10;0.10;;;;;;;;;;5092573;28;20074;-82
2022/05/17 04:12:38;;;;;;;0.10;0.10;;;;;;;;;;5094164;28;20024;-81
2022/05/17 04:15:05;;;;;;;0.10;0.10;;;;;;;;;;5093992;28;20024;-82
2022/05/17 04:17:32;;;;;;;0.10;0.10;;;;;;;;;;5093613;28;20028;-82
2022/05/17 04:19:59;;;;;;;0.10;0.10;;;;;;;;;;5106960;28;20035;-83
2022/05/17 04:22:25;;;;;;;0.10;0.10;;;;;;;;;;5114080;28;20127;-82
2022/05/17 04:24:58;;;;;;;0.10;0.10;;;;;;;;;;5112490;28;20398;-82
2022/05/17 04:27:24;;;;;;;0.10;0.10;;;;;;;;;;5114025;28;20028;-82
2022/05/17 04:29:50;;;;;;;0.10;0.10;;;;;;;;;;5112000;28;20411;-82
2022/05/17 04:32:17;;;;;;;0.10;0.10;;;;;;;;;;5113931;28;20027;-82
2022/05/17 04:34:43;;;;;;;0.10;0.10;;;;;;;;;;5113766;28;20038;-82
2022/05/17 04:37:09;;;;;;;0.10;0.10;;;;;;;;;;5112943;28;20024;-81
2022/05/17 04:39:35;;;;;;;0.10;0.10;;;;;;;;;;5113497;28;20487;-82
2022/05/17 04:42:01;;;;;;;0.10;0.10;;;;;;;;;;5113856;28;20371;-83
2022/05/17 04:44:28;;;;;;;0.10;0.10;;;;;;;;;;5110291;28;20112;-82
2022/05/17 04:46:54;;;;;;;0.10;0.10;;;;;;;;;;5112587;28;20059;-81
2022/05/17 04:49:21;;;;;;;0.10;0.10;;;;;;;;;;5113719;28;20094;-81
2022/05/17 04:51:50;;;;;;;0.15;0.15;;;;;;;;;;5113370;28;20487;-82
2022/05/17 04:54:16;;;;;;;0.10;0.10;;;;;;;;;;5113356;28;20031;-81
2022/05/17 04:56:42;;;;;;;0.10;0.10;;;;;;;;;;5111551;28;20031;-83
2022/05/17 04:59:08;;;;;;;0.10;0.10;;;;;;;;;;5113772;28;20502;-82
2022/05/17 05:01:34;;;;;;;0.10;0.10;;;;;;;;;;5098262;28;20043;-81
2022/05/17 05:04:00;;;;;;;0.10;0.10;;;;;;;;;;5091773;28;20028;-82
2022/05/17 05:06:27;;;;;;;0.10;0.10;;;;;;;;;;5092765;28;20548;-82
2022/05/17 05:08:53;;;;;;;0.10;0.10;;;;;;;;;;5091132;28;20020;-81
2022/05/17 05:11:19;;;;;;;0.10;0.10;;;;;;;;;;5093472;28;20089;-82
2022/05/17 05:13:45;;;;;;;0.10;0.10;;;;;;;;;;5092206;28;20028;-83
2022/05/17 05:16:12;;;;;;;0.10;0.10;;;;;;;;;;5091729;28;20497;-82
2022/05/17 05:18:38;;;;;;;0.10;0.10;;;;;;;;;;5092156;28;20119;-83
2022/05/17 05:21:09;;;;;;;0.10;0.10;;;;;;;;;;5103529;28;20028;-83
2022/05/17 05:23:35;;;;;;;0.10;0.10;;;;;;;;;;5092340;28;20073;-83
2022/05/17 05:26:02;;;;;;;0.10;0.10;;;;;;;;;;5091270;28;20024;-82
2022/05/17 05:28:28;;;;;;;0.10;0.10;;;;;;;;;;5092283;28;20020;-80
2022/05/17 05:30:54;;;;;;;0.10;0.10;;;;;;;;;;5103207;28;20026;-85
2022/05/17 05:33:21;;;;;;;0.10;0.10;;;;;;;;;;5092590;28;20103;-85
2022/05/17 05:35:47;;;;;;;0.10;0.10;;;;;;;;;;5093384;28;20028;-85
2022/05/17 05:38:14;;;;;;;0.10;0.10;;;;;;;;;;5093874;28;20071;-85
2022/05/17 05:40:41;;;;;;;0.10;0.10;;;;;;;;;;5092291;28;20506;-88
2022/05/17 05:43:07;;;;;;;0.10;0.10;;;;;;;;;;5092342;28;20059;-86
2022/05/17 05:45:33;;;;;;;0.10;0.10;;;;;;;;;;5091959;28;20032;-85
2022/05/17 05:47:59;;;;;;;0.10;0.10;;;;;;;;;;5092111;28;20028;-85
2022/05/17 05:50:26;;;;;;;0.10;0.10;;;;;;;;;;5092659;28;20029;-81
2022/05/17 05:52:52;;;;;;;0.10;0.10;;;;;;;;;;5091839;28;20034;-85
2022/05/17 05:55:20;;;;;;;0.10;0.10;;;;;;;;;;5102771;28;20028;-87
2022/05/17 05:57:46;;;;;;;0.10;0.10;;;;;;;;;;5093118;28;20093;-81
2022/05/17 06:00:13;;;;;;;0.10;0.10;;;;;;;;;;5091317;28;20028;-87
2022/05/17 06:02:39;;;;;;;0.10;0.10;;;;;;;;;;5091843;28;20384;-87
2022/05/17 06:05:05;;;;;;;0.10;0.10;;;;;;;;;;5092251;28;20024;-86
2022/05/17 06:07:31;;;;;;;0.10;0.10;;;;;;;;;;5090748;28;20038;-87
2022/05/17 06:09:57;;;;;;;0.10;0.10;;;;;;;;;;5091103;28;20028;-88
2022/05/17 06:12:23;;;;;;;0.20;0.20;;;;;;;;;;5090453;28;20028;-88
2022/05/17 06:14:49;;;;;;;0.10;0.10;;;;;;;;;;5091525;28;20020;-84
2022/05/17 06:17:15;;;;;;;0.10;0.10;;;;;;;;;;5091968;28;20035;-88
2022/05/17 06:19:41;;;;;;;0.10;0.10;;;;;;;;;;5092049;28;20396;-89
2022/05/17 06:22:07;;;;;;;0.10;0.10;;;;;;;;;;5091492;28;20024;-86
2022/05/17 06:24:33;;;;;;;0.10;0.10;;;;;;;;;;5091378;28;20136;-83
2022/05/17 06:27:00;;;;;;;0.10;0.10;;;;;;;;;;5092297;28;20036;-84
2022/05/17 06:29:26;;;;;;;0.10;0.10;;;;;;;;;;5092361;28;20146;-84
2022/05/17 06:31:52;;;;;;;0.10;0.10;;;;;;;;;;5092972;28;20411;-83
2022/05/17 06:34:18;;;;;;;0.10;0.10;;;;;;;;;;5102335;28;20388;-83
2022/05/17 06:36:44;;;;;;;0.10;0.10;;;;;;;;;;5091234;28;20062;-84
2022/05/17 06:39:11;;;;;;;0.10;0.10;;;;;;;;;;5095901;28;20047;-83
2022/05/17 06:41:37;;;;;;;0.88;0.88;;;;;;;;;;5107280;28;20732;-80
2022/05/17 06:44:04;;;;;;;0.10;0.10;;;;;;;;;;5093433;28;20091;-80
2022/05/17 06:46:29;;;;;;;0.05;0.05;;;;;;;;;;5090969;28;20441;-81
2022/05/17 06:48:55;;;;;;;0.00;0.00;;;;;;;;;;5089373;28;20051;-83
2022/05/17 06:51:21;;;;;;;0.10;0.10;;;;;;;;;;5089612;28;20073;-83
2022/05/17 06:53:48;;;;;;;0.10;0.10;;;;;;;;;;5089490;28;20020;-82
2022/05/17 06:56:14;;;;;;;0.10;0.10;;;;;;;;;;5089823;28;20016;-82
2022/05/17 06:58:40;;;;;;;0.10;0.10;;;;;;;;;;5089283;28;20146;-81
2022/05/17 07:01:06;;;;;;;0.15;0.15;;;;;;;;;;5089480;28;20119;-82
2022/05/17 07:03:32;;;;;;;0.10;0.10;;;;;;;;;;5089231;28;20024;-82
2022/05/17 07:05:58;;;;;;;0.10;0.10;;;;;;;;;;5089439;28;20463;-82
2022/05/17 07:08:24;;;;;;;0.10;0.10;;;;;;;;;;5090132;28;20052;-82
2022/05/17 07:13:34;;;;;;;0.10;0.10;;;;;;;;;;5095012;28;20133;-84
2022/05/17 07:16:00;;;;;;;0.10;0.10;;;;;;;;;;5095364;28;20491;-87
2022/05/17 07:18:29;;;;;;;0.10;0.10;;;;;;;;;;5095141;28;20024;-86
2022/05/17 07:20:55;;;;;;;0.10;0.10;;;;;;;;;;5095190;28;20119;-87
2022/05/17 07:23:24;;;;;;;0.10;0.10;;;;;;;;;;5095255;28;20096;-87
2022/05/17 07:25:50;;;;;;;0.10;0.10;;;;;;;;;;5094559;28;20047;-89
2022/05/17 07:28:17;;;;;;;0.10;0.10;;;;;;;;;;5093758;28;20060;-88
2022/05/17 07:30:44;;;;;;;0.10;0.10;;;;;;;;;;5095212;28;20028;-89
2022/05/17 07:33:10;;;;;;;0.10;0.10;;;;;;;;;;5095436;28;20059;-89
2022/05/17 07:35:36;;;;;;;0.10;0.10;;;;;;;;;;5095233;28;20031;-88
2022/05/17 07:38:03;;;;;;;0.10;0.10;;;;;;;;;;5095447;28;20024;-88
2022/05/17 07:40:30;;;;;;;0.00;0.00;;;;;;;;;;5093783;28;20422;-86
2022/05/17 07:42:56;;;;;;;0.10;0.10;;;;;;;;;;5094128;28;20034;-89
2022/05/17 07:45:22;;;;;;;0.10;0.10;;;;;;;;;;5095366;28;20107;-89
2022/05/17 07:47:48;;;;;;;0.10;0.10;;;;;;;;;;5095223;28;20483;-88
2022/05/17 07:50:14;;;;;;;0.10;0.10;;;;;;;;;;5095233;28;20035;-89
2022/05/17 07:52:41;;;;;;;0.10;0.10;;;;;;;;;;5094867;28;20080;-89
2022/05/17 07:55:07;;;;;;;0.10;0.10;;;;;;;;;;5094893;28;20127;-88
2022/05/17 07:57:33;;;;;;;0.10;0.10;;;;;;;;;;5093529;28;20020;-88
2022/05/17 07:59:59;;;;;;;0.10;0.10;;;;;;;;;;5094783;28;20381;-89
2022/05/17 08:02:25;;;;;;;0.10;0.10;;;;;;;;;;5094830;28;20016;-88
2022/05/17 08:04:51;;;;;;;0.10;0.10;;;;;;;;;;5094531;28;20028;-88
2022/05/17 08:07:17;;;;;;;0.10;0.10;;;;;;;;;;5094812;28;20028;-88
2022/05/17 08:09:43;;;;;;;0.10;0.10;;;;;;;;;;5094382;28;20028;-88
2022/05/17 08:12:10;;;;;;;0.10;0.10;;;;;;;;;;5094588;28;20016;-88
2022/05/17 08:14:37;;;;;;;0.10;0.10;;;;;;;;;;5094369;28;20030;-89
2022/05/17 08:17:04;;;;;;;0.10;0.10;;;;;;;;;;5094699;28;20113;-87
2022/05/17 08:19:30;;;;;;;0.10;0.10;;;;;;;;;;5094241;28;20024;-86
2022/05/17 08:21:56;;;;;;;0.10;0.10;;;;;;;;;;5093102;28;20032;-87
2022/05/17 08:24:22;;;;;;;0.10;0.10;;;;;;;;;;5094288;28;20056;-87
2022/05/17 08:29:33;;;;;;;0.00;0.00;;;;;;;;;;5093909;28;20036;-87
2022/05/17 08:34:43;;;;;;;0.10;0.10;;;;;;;;;;5093931;28;20042;-86
2022/05/17 08:37:09;;;;;;;0.10;0.10;;;;;;;;;;5094103;28;20084;-89
2022/05/17 08:39:35;;;;;;;0.05;0.05;;;;;;;;;;5093771;28;20020;-87
2022/05/17 08:42:16;;;;;;;0.10;0.10;;;;;;;;;;5094066;28;20122;-87
2022/05/17 08:44:42;;;;;;;0.10;0.10;;;;;;;;;;5093812;28;20036;-87
2022/05/17 08:47:12;;;;;;;0.10;0.10;;;;;;;;;;5092570;28;20093;-86
2022/05/17 08:49:50;;;;;;;0.10;0.10;;;;;;;;;;5092423;28;20537;-89
2022/05/17 08:52:18;;;;;;;0.10;0.10;;;;;;;;;;5092441;28;20062;-88
2022/05/17 08:54:53;;;;;;;0.00;0.00;;;;;;;;;;5093447;28;20379;-88
2022/05/17 08:57:31;;;;;;;0.10;0.10;;;;;;;;;;5094053;28;20051;-89
2022/05/17 08:59:58;;;;;;;0.10;0.10;;;;;;;;;;5092434;28;20032;-88
2022/05/17 09:02:46;;;;;;;0.10;0.10;;;;;;;;;;5093585;28;20357;-85
2022/05/17 09:05:18;;;;;;;0.10;0.10;;;;;;;;;;5084261;28;20078;-86
2022/05/17 09:07:46;;;;;;;0.10;0.10;;;;;;;;;;5091908;28;20040;-88
2022/05/17 09:10:19;;;;;;;0.10;0.10;;;;;;;;;;5093362;28;20027;-87
2022/05/17 09:12:54;;;;;;;0.10;0.10;;;;;;;;;;5092979;28;20476;-89
2022/05/17 09:15:20;;;;;;;0.10;0.10;;;;;;;;;;5093667;28;20059;-86
2022/05/17 09:17:47;;;;;;;0.10;0.10;;;;;;;;;;5092970;28;20026;-88
2022/05/17 09:20:16;;;;;;;0.10;0.10;;;;;;;;;;5092272;28;20034;-88
2022/05/17 09:22:42;;;;;;;0.10;0.10;;;;;;;;;;5093041;28;20032;-82
2022/05/17 09:25:20;;;;;;;0.10;0.10;;;;;;;;;;5093296;28;20024;-88
2022/05/17 09:27:48;;;;;;;0.10;0.10;;;;;;;;;;5091661;28;20388;-84
2022/05/17 09:30:23;;;;;;;0.10;0.10;;;;;;;;;;5092127;28;20557;-86
2022/05/17 09:32:59;;;;;;;0.10;0.10;;;;;;;;;;5092123;28;20028;-88
2022/05/17 09:35:25;;;;;;;0.10;0.10;;;;;;;;;;5092652;28;20031;-84
2022/05/17 09:37:52;;;;;;;0.10;0.10;;;;;;;;;;5092630;28;20024;-84
2022/05/17 09:40:23;;;;;;;0.10;0.10;;;;;;;;;;5091676;28;20028;-87
2022/05/17 09:42:49;;;;;;;0.10;0.10;;;;;;;;;;5092080;28;20128;-85
2022/05/17 09:45:16;;;;;;;0.10;0.10;;;;;;;;;;5092248;28;20442;-85
2022/05/17 09:47:44;;;;;;;0.10;0.10;;;;;;;;;;5091884;28;20020;-86
2022/05/17 09:53:01;;;;;;;0.10;0.10;;;;;;;;;;5092252;28;20094;-85
2022/05/17 09:55:30;;;;;;;0.10;0.10;;;;;;;;;;5092033;28;20020;-82
2022/05/17 09:57:59;;;;;;;0.10;0.10;;;;;;;;;;5092097;28;20031;-82
2022/05/17 10:00:30;;;;;;;0.00;0.00;;;;;;;;;;5090895;28;20057;-84
2022/05/17 10:03:05;;;;;;;0.10;0.10;;;;;;;;;;5090517;28;20377;-84
2022/05/17 10:05:37;;;;;;;0.10;0.10;;;;;;;;;;5090091;28;20059;-83
2022/05/17 10:08:05;;;;;;;0.10;0.10;;;;;;;;;;5091606;28;20032;-85
2022/05/17 10:10:32;;;;;;;0.10;0.10;;;;;;;;;;5090144;28;20049;-83
2022/05/17 10:13:03;;;;;;;0.00;0.00;;;;;;;;;;5090811;28;20052;-85
2022/05/17 10:15:32;;;;;;;0.10;0.10;;;;;;;;;;5089621;28;20063;-81
2022/05/17 10:18:00;;;;;;;0.10;0.10;;;;;;;;;;5091665;28;20016;-85
2022/05/17 10:20:30;;;;;;;0.10;0.10;;;;;;;;;;5091534;28;20138;-84
2022/05/17 10:22:56;;;;;;;0.10;0.10;;;;;;;;;;5091666;28;20036;-84
2022/05/17 10:25:28;;;;;;;0.10;0.10;;;;;;;;;;5091739;28;20028;-85
2022/05/17 10:27:55;;;;;;;0.10;0.10;;;;;;;;;;5090152;28;20024;-84
2022/05/17 10:30:28;;;;;;;0.10;0.10;;;;;;;;;;5091711;28;20031;-84
2022/05/17 10:33:00;;;;;;;0.00;0.00;;;;;;;;;;5090219;28;20509;-84
2022/05/17 10:35:26;;;;;;;0.10;0.10;;;;;;;;;;5090119;28;20051;-83
2022/05/17 10:38:02;;;;;;;0.10;0.10;;;;;;;;;;5091412;28;20642;-84
2022/05/17 10:40:30;;;;;;;0.10;0.10;;;;;;;;;;5090007;28;20036;-85
2022/05/17 10:42:57;;;;;;;0.00;0.00;;;;;;;;;;5091306;28;20024;-83
2022/05/17 10:45:33;;;;;;;0.10;0.10;;;;;;;;;;5090914;28;20108;-84
2022/05/17 10:48:05;;;;;;;0.10;0.10;;;;;;;;;;5091311;28;20061;-84
2022/05/17 10:50:53;;;;;;;0.10;0.10;;;;;;;;;;5091170;28;20016;-82
2022/05/17 10:53:21;;;;;;;0.10;0.10;;;;;;;;;;5091474;28;20024;-84
2022/05/17 10:56:08;;;;;;;0.10;0.10;;;;;;;;;;5091013;28;20024;-84
2022/05/17 10:58:48;;;;;;;0.10;0.10;;;;;;;;;;5090708;28;20032;-83
2022/05/17 11:01:24;;;;;;;0.32;0.32;;;;;;;;;;5091098;28;20043;-84
2022/05/17 11:04:09;;;;;;;0.10;0.10;;;;;;;;;;5089887;28;20462;-84
2022/05/17 11:06:44;;;;;;;0.10;0.10;;;;;;;;;;5089393;28;20032;-85
2022/05/17 11:09:16;;;;;;;0.10;0.10;;;;;;;;;;5089499;28;20526;-84
2022/05/17 11:11:57;;;;;;;0.10;0.10;;;;;;;;;;5089180;28;20433;-83
2022/05/17 11:14:23;;;;;;;0.10;0.10;;;;;;;;;;5089702;28;20020;-81
2022/05/17 11:16:59;;;;;;;0.10;0.10;;;;;;;;;;5089164;28;20490;-84
2022/05/17 11:19:34;;;;;;;0.10;0.10;;;;;;;;;;5087063;28;20092;-83
2022/05/17 11:22:04;;;;;;;0.05;0.05;;;;;;;;;;5088142;28;20035;-84
2022/05/17 11:24:34;;;;;;;0.03;0.03;;;;;;;;;;5089178;28;20077;-84
2022/05/17 11:27:03;;;;;;;0.10;0.10;;;;;;;;;;5089048;28;20016;-83
2022/05/17 11:29:42;;;;;;;0.10;0.10;;;;;;;;;;5087744;28;20074;-79
2022/05/17 11:32:23;;;;;;;0.10;0.10;;;;;;;;;;5087273;28;20020;-84
2022/05/17 11:34:50;;;;;;;0.10;0.10;;;;;;;;;;5087043;28;20020;-83
2022/05/17 11:37:48;;;;;;;0.10;0.10;;;;;;;;;;5089205;28;20032;-83
2022/05/17 11:40:34;;;;;;;0.10;0.10;;;;;;;;;;5053744;28;20036;-82
2022/05/17 11:45:50;;;;;;;0.10;0.10;;;;;;;;;;5088788;28;19965;-85
2022/05/17 11:48:17;;;;;;;0.10;0.10;;;;;;;;;;5087848;28;20463;-85
2022/05/17 11:50:45;;;;;;;0.10;0.10;;;;;;;;;;5088643;28;20035;-85
2022/05/17 11:53:23;;;;;;;0.10;0.10;;;;;;;;;;5087657;28;20020;-85
2022/05/17 11:56:07;;;;;;;0.00;0.00;;;;;;;;;;5085363;28;20028;-84
2022/05/17 11:58:33;;;;;;;0.10;0.10;;;;;;;;;;5090625;28;20054;-84
2022/05/17 12:00:59;;;;;;;0.10;0.10;;;;;;;;;;5092673;28;20206;-85
2022/05/17 12:03:44;;;;;;;0.10;0.10;;;;;;;;;;5094530;28;20073;-85
2022/05/17 12:06:11;;;;;;;0.10;0.10;;;;;;;;;;5093054;28;20024;-84
2022/05/17 12:08:39;;;;;;;0.10;0.10;;;;;;;;;;5093397;28;20522;-86
2022/05/17 12:11:11;;;;;;;0.10;0.10;;;;;;;;;;5094153;28;20019;-85
2022/05/17 12:13:41;;;;;;;0.10;0.10;;;;;;;;;;5092492;28;20380;-86
2022/05/17 12:16:08;;;;;;;0.10;0.10;;;;;;;;;;5094093;28;20020;-86
2022/05/17 12:19:04;;;;;;;0.10;0.10;;;;;;;;;;5093408;28;20036;-84
2022/05/17 12:21:35;;;;;;;0.10;0.10;;;;;;;;;;5039634;28;20045;-82
2022/05/17 12:24:14;;;;;;;0.10;0.10;;;;;;;;;;5093831;28;20125;-86
2022/05/17 12:26:44;;;;;;;0.08;0.08;;;;;;;;;;5092053;28;20028;-86
2022/05/17 12:32:04;;;;;;;0.10;0.10;;;;;;;;;;5094183;28;20027;-85
2022/05/17 12:34:30;;;;;;;;;;;;;;;;;;5093699;28;20428;-85
2022/05/17 12:36:56;;;;;;;;;;;;;;;;;;5094386;28;19958;-86
2022/05/17 12:44:53;;;;;;;0.10;0.10;;;;;;;;;;5093361;28;20042;-86
2022/05/17 12:47:22;;;;;;;0.10;0.10;;;;;;;;;;5093507;28;20025;-84
2022/05/17 12:49:52;;;;;;;0.10;0.10;;;;;;;;;;5093043;28;20511;-85
2022/05/17 12:52:22;;;;;;;0.10;0.10;;;;;;;;;;5093369;28;20030;-86
2022/05/17 12:54:49;;;;;;;0.10;0.10;;;;;;;;;;5092959;28;20024;-82
2022/05/17 12:57:27;;;;;;;0.10;0.10;;;;;;;;;;5091856;28;20031;-84
2022/05/17 13:00:07;;;;;;;0.10;0.10;;;;;;;;;;5092865;28;20028;-82
2022/05/17 13:02:40;;;;;;;0.10;0.10;;;;;;;;;;5092957;28;20035;-86
2022/05/17 13:05:22;;;;;;;0.10;0.10;;;;;;;;;;5093104;28;20024;-84
2022/05/17 13:07:48;;;;;;;0.10;0.10;;;;;;;;;;5091804;28;20468;-85
2022/05/17 13:10:14;;;;;;;0.10;0.10;;;;;;;;;;5091754;28;20072;-84
2022/05/17 13:12:42;;;;;;;0.10;0.10;;;;;;;;;;5092635;28;20388;-85
2022/05/17 13:15:09;;;;;;;0.10;0.10;;;;;;;;;;5092883;28;20029;-86
2022/05/17 13:17:38;;;;;;;0.10;0.10;;;;;;;;;;5092456;28;20020;-83
2022/05/17 13:20:15;;;;;;;0.10;0.10;;;;;;;;;;5092675;28;20427;-83
2022/05/17 13:22:43;;;;;;;0.10;0.10;;;;;;;;;;5092555;28;20032;-82
2022/05/17 13:25:14;;;;;;;0.10;0.10;;;;;;;;;;5092742;28;20054;-84
2022/05/17 13:27:44;;;;;;;0.10;0.10;;;;;;;;;;5092442;28;20426;-81
2022/05/17 13:30:31;;;;;;;0.10;0.10;;;;;;;;;;5092568;28;20099;-84
2022/05/17 13:32:58;;;;;;;0.10;0.10;;;;;;;;;;5092787;28;20059;-83
2022/05/17 13:35:38;;;;;;;0.00;0.00;;;;;;;;;;5092617;28;20422;-83
2022/05/17 13:38:13;;;;;;;0.10;0.10;;;;;;;;;;5092469;28;20016;-83
2022/05/17 13:40:50;;;;;;;0.10;0.10;;;;;;;;;;5092000;28;20062;-85
2022/05/17 13:43:35;;;;;;;0.10;0.10;;;;;;;;;;5092273;28;20479;-85
2022/05/17 13:46:07;;;;;;;0.10;0.10;;;;;;;;;;5092245;28;20031;-85
2022/05/17 13:48:34;;;;;;;0.10;0.10;;;;;;;;;;5091908;28;20403;-83
2022/05/17 13:51:01;;;;;;;0.10;0.10;;;;;;;;;;5091066;28;20499;-83
2022/05/17 13:53:32;;;;;;;0.10;0.10;;;;;;;;;;5092538;28;20102;-86
2022/05/17 13:55:59;;;;;;;0.10;0.10;;;;;;;;;;5092551;28;20012;-83
2022/05/17 13:58:25;;;;;;;0.10;0.10;;;;;;;;;;5091024;28;20511;-84
2022/05/17 14:00:57;;;;;;;0.10;0.10;;;;;;;;;;5091706;28;20040;-85
2022/05/17 14:03:24;;;;;;;0.08;0.08;;;;;;;;;;5091956;28;20031;-84
2022/05/17 14:05:55;;;;;;;0.10;0.10;;;;;;;;;;5090573;28;20028;-85
2022/05/17 14:14:13;;;;;;;0.10;0.10;;;;;;;;;;5091989;28;20077;-86
2022/05/17 14:16:40;;;;;;;0.10;0.10;;;;;;;;;;5091608;28;20036;-84
2022/05/17 14:19:06;;;;;;;0.10;0.10;;;;;;;;;;5091643;28;20055;-85
2022/05/17 14:21:32;;;;;;;0.10;0.10;;;;;;;;;;5091438;28;20487;-85
2022/05/17 14:23:59;;;;;;;0.10;0.10;;;;;;;;;;5090716;28;20483;-86
2022/05/17 14:26:25;;;;;;;0.10;0.10;;;;;;;;;;5092010;28;20016;-86
2022/05/17 14:28:51;;;;;;;0.10;0.10;;;;;;;;;;5091356;28;20024;-85
2022/05/17 14:31:31;;;;;;;0.10;0.10;;;;;;;;;;5091548;28;20357;-82
2022/05/17 14:33:59;;;;;;;0.10;0.10;;;;;;;;;;5092001;28;20020;-82
2022/05/17 14:36:26;;;;;;;0.10;0.10;;;;;;;;;;5090496;28;20020;-83
2022/05/17 14:38:52;;;;;;;0.08;0.08;;;;;;;;;;5091220;28;20166;-82
2022/05/17 14:41:19;;;;;;;0.10;0.10;;;;;;;;;;5091310;28;20042;-83
2022/05/17 14:43:46;;;;;;;0.10;0.10;;;;;;;;;;5089637;28;20119;-82
2022/05/17 14:46:14;;;;;;;0.10;0.10;;;;;;;;;;5091387;28;20028;-83
2022/05/17 14:48:40;;;;;;;0.10;0.10;;;;;;;;;;5091180;28;20056;-82
2022/05/17 14:51:07;;;;;;;0.10;0.10;;;;;;;;;;5090104;28;20487;-83
2022/05/17 14:53:34;;;;;;;0.10;0.10;;;;;;;;;;5091095;28;20445;-82
2022/05/17 14:56:00;;;;;;;0.10;0.10;;;;;;;;;;5091069;28;20020;-81
2022/05/17 14:58:26;;;;;;;0.10;0.10;;;;;;;;;;5091546;28;20059;-83
2022/05/17 15:00:52;;;;;;;0.10;0.10;;;;;;;;;;5090999;28;20060;-82
2022/05/17 15:03:23;;;;;;;0.10;0.10;;;;;;;;;;5091123;28;20024;-82
2022/05/17 15:05:49;;;;;;;0.10;0.10;;;;;;;;;;5090940;28;20390;-81
2022/05/17 15:08:16;;;;;;;0.10;0.10;;;;;;;;;;5091038;28;20031;-82
2022/05/17 15:10:42;;;;;;;0.10;0.10;;;;;;;;;;5089586;28;20070;-82
2022/05/17 15:13:08;;;;;;;0.10;0.10;;;;;;;;;;5091072;28;20078;-82
2022/05/17 15:15:34;;;;;;;0.10;0.10;;;;;;;;;;5090748;28;20074;-82
2022/05/17 15:18:00;;;;;;;0.10;0.10;;;;;;;;;;5091005;28;20024;-83
2022/05/17 15:20:27;;;;;;;0.10;0.10;;;;;;;;;;5091404;28;20035;-82
2022/05/17 15:22:56;;;;;;;0.00;0.00;;;;;;;;;;5089477;28;20036;-80
2022/05/17 15:25:22;;;;;;;0.10;0.10;;;;;;;;;;5090917;28;20384;-82